Terminal Aerodrome Forecast
Issued by NWS Mobile, AL

Home | Current Version | Previous Version | Text Only | Print | Product List | Glossary On
Versions: 1 2 3 4 5 6 7 8 9 10 11 12 13 14 15
000
FTUS44 KMOB 221235 AAA
TAFMOB
TAF AMD
KMOB 221235Z 2213/2312 05005KT P6SM VCTS SCT018CB BKN025 OVC040
      TEMPO 2213/2217 VRB12G25KT 4SM TSRA BKN010CB
     FM221700 13012KT 4SM TSRA BKN030CB OVC080
     FM230900 34005KT 5SM -RA BR VCSH OVC007 PROB30 2309/2312 4SM
      TSRA BKN007CB=

USA.gov is the U.S. government's official web portal to all federal, state and local government web resources and services.